createdAt,value
2018-12-13T00:00:44.638Z,1018.77
2018-12-13T00:01:44.609Z,1018.79
2018-12-13T00:02:44.589Z,1018.76
2018-12-13T00:03:44.554Z,1018.79
2018-12-13T00:04:44.546Z,1018.75
2018-12-13T00:05:44.501Z,1018.77
2018-12-13T00:06:44.476Z,1018.76
2018-12-13T00:07:44.450Z,1018.73
2018-12-13T00:08:44.422Z,1018.74
2018-12-13T00:09:44.395Z,1018.73
2018-12-13T00:10:44.371Z,1018.75
2018-12-13T00:11:44.344Z,1018.72
2018-12-13T00:12:44.319Z,1018.72
2018-12-13T00:13:44.292Z,1018.68
2018-12-13T00:14:44.263Z,1018.72
2018-12-13T00:15:44.237Z,1018.70
2018-12-13T00:16:44.225Z,1018.71
2018-12-13T00:17:44.188Z,1018.71
2018-12-13T00:18:44.159Z,1018.69
2018-12-13T00:19:44.132Z,1018.69
2018-12-13T00:20:44.106Z,1018.68
2018-12-13T00:21:44.080Z,1018.74
2018-12-13T00:22:44.054Z,1018.68
2018-12-13T00:23:44.031Z,1018.72
2018-12-13T00:24:44.048Z,1018.67
2018-12-13T00:25:43.977Z,1018.72
2018-12-13T00:26:43.946Z,1018.69
2018-12-13T00:27:43.972Z,1018.74
2018-12-13T00:28:43.894Z,1018.76
2018-12-13T00:29:43.867Z,1018.74
2018-12-13T00:30:43.890Z,1018.75
2018-12-13T00:31:43.814Z,1018.71
2018-12-13T00:32:43.788Z,1018.75
2018-12-13T00:33:43.762Z,1018.77
2018-12-13T00:34:43.734Z,1018.74
2018-12-13T00:35:43.709Z,1018.76
2018-12-13T00:36:43.683Z,1018.73
2018-12-13T00:37:43.655Z,1018.72
2018-12-13T00:38:43.636Z,1018.72
2018-12-13T00:39:43.604Z,1018.72
2018-12-13T00:40:43.585Z,1018.73
2018-12-13T00:41:43.550Z,1018.70
2018-12-13T00:42:43.531Z,1018.68
2018-12-13T00:43:43.496Z,1018.69
2018-12-13T00:44:43.473Z,1018.65
2018-12-13T00:45:43.444Z,1018.66
2018-12-13T00:46:43.419Z,1018.64
2018-12-13T00:47:43.390Z,1018.62
2018-12-13T00:48:43.364Z,1018.65
2018-12-13T00:49:43.337Z,1018.63
2018-12-13T00:50:43.311Z,1018.60
2018-12-13T00:51:43.284Z,1018.57
2018-12-13T00:52:43.261Z,1018.61
2018-12-13T00:53:43.230Z,1018.59
2018-12-13T00:54:43.211Z,1018.58
2018-12-13T00:55:43.179Z,1018.59
2018-12-13T00:56:43.162Z,1018.55
2018-12-13T00:57:43.126Z,1018.58
2018-12-13T00:58:43.101Z,1018.56
2018-12-13T00:59:43.075Z,1018.57
2018-12-13T01:00:43.059Z,1018.61
2018-12-13T01:01:43.026Z,1018.59
2018-12-13T01:02:42.997Z,1018.58
2018-12-13T01:03:42.969Z,1018.55
2018-12-13T01:04:42.944Z,1018.58
2018-12-13T01:05:42.919Z,1018.55
2018-12-13T01:06:45.936Z,1018.55
2018-12-13T01:07:42.863Z,1018.56
2018-12-13T01:08:42.838Z,1018.54
2018-12-13T01:09:42.811Z,1018.52
2018-12-13T01:10:42.784Z,1018.50
2018-12-13T01:11:42.760Z,1018.54
2018-12-13T01:12:42.815Z,1018.50
2018-12-13T01:13:42.705Z,1018.50
2018-12-13T01:14:42.675Z,1018.49
2018-12-13T01:15:42.654Z,1018.46
2018-12-13T01:16:42.626Z,1018.50
2018-12-13T01:17:42.598Z,1018.49
2018-12-13T01:18:42.573Z,1018.48
2018-12-13T01:19:42.564Z,1018.52
2018-12-13T01:20:42.523Z,1018.51
2018-12-13T01:21:42.494Z,1018.47
2018-12-13T01:22:42.466Z,1018.44
2018-12-13T01:23:42.441Z,1018.45
2018-12-13T01:24:42.421Z,1018.43
2018-12-13T01:25:42.396Z,1018.44
2018-12-13T01:26:42.361Z,1018.44
2018-12-13T01:27:42.335Z,1018.39
2018-12-13T01:28:42.308Z,1018.39
2018-12-13T01:29:42.286Z,1018.44
2018-12-13T01:30:42.254Z,1018.36
2018-12-13T01:31:42.229Z,1018.36
2018-12-13T01:32:42.202Z,1018.33
2018-12-13T01:33:42.174Z,1018.32
2018-12-13T01:34:42.149Z,1018.33
2018-12-13T01:35:42.122Z,1018.36
2018-12-13T01:36:42.096Z,1018.31
2018-12-13T01:37:42.066Z,1018.32
2018-12-13T01:38:42.041Z,1018.29
2018-12-13T01:39:42.044Z,1018.33
2018-12-13T01:40:41.991Z,1018.31
2018-12-13T01:41:41.962Z,1018.28
2018-12-13T01:42:41.935Z,1018.30
2018-12-13T01:43:41.915Z,1018.33
2018-12-13T01:44:41.885Z,1018.33
2018-12-13T01:45:41.865Z,1018.26
2018-12-13T01:46:41.832Z,1018.29
2018-12-13T01:47:41.803Z,1018.27
2018-12-13T01:48:41.785Z,1018.26
2018-12-13T01:49:41.749Z,1018.31
2018-12-13T01:50:41.727Z,1018.28
2018-12-13T01:51:41.699Z,1018.28
2018-12-13T01:52:41.670Z,1018.27
2018-12-13T01:53:41.641Z,1018.27
2018-12-13T01:54:41.614Z,1018.27
2018-12-13T01:55:41.590Z,1018.24
2018-12-13T01:56:41.563Z,1018.24
2018-12-13T01:57:41.544Z,1018.22
2018-12-13T01:58:41.519Z,1018.23
2018-12-13T01:59:41.482Z,1018.19
2018-12-13T02:00:41.455Z,1018.19
2018-12-13T02:01:41.428Z,1018.20
2018-12-13T02:02:41.401Z,1018.16
2018-12-13T02:03:41.373Z,1018.22
2018-12-13T02:04:41.347Z,1018.26
2018-12-13T02:05:41.320Z,1018.25
2018-12-13T02:06:41.293Z,1018.22
2018-12-13T02:07:41.269Z,1018.22
2018-12-13T02:08:41.244Z,1018.18
2018-12-13T02:09:41.211Z,1018.17
2018-12-13T02:10:41.186Z,1018.22
2018-12-13T02:11:41.164Z,1018.20
2018-12-13T02:12:41.131Z,1018.23
2018-12-13T02:13:41.103Z,1018.17
2018-12-13T02:14:41.092Z,1018.16
2018-12-13T02:15:41.051Z,1018.16
2018-12-13T02:16:41.025Z,1018.16
2018-12-13T02:17:40.994Z,1018.17
2018-12-13T02:18:40.977Z,1018.18
2018-12-13T02:19:40.942Z,1018.14
2018-12-13T02:20:40.914Z,1018.11
2018-12-13T02:21:40.887Z,1018.16
2018-12-13T02:22:40.861Z,1018.10
2018-12-13T02:23:40.843Z,1018.14
2018-12-13T02:24:40.806Z,1018.12
2018-12-13T02:25:40.779Z,1018.07
2018-12-13T02:26:40.766Z,1018.10
2018-12-13T02:27:40.725Z,1018.07
2018-12-13T02:28:40.698Z,1018.06
2018-12-13T02:29:40.672Z,1018.04
2018-12-13T02:30:40.646Z,1018.04
2018-12-13T02:31:40.622Z,1018.05
2018-12-13T02:32:40.593Z,1018.04
2018-12-13T02:33:40.566Z,1018.01
2018-12-13T02:34:40.535Z,1018.00
2018-12-13T02:35:40.509Z,1018.04
2018-12-13T02:36:40.488Z,1017.99
2018-12-13T02:37:40.455Z,1018.02
2018-12-13T02:38:40.430Z,1018.06
2018-12-13T02:39:40.410Z,1018.04
2018-12-13T02:40:40.376Z,1018.00
2018-12-13T02:41:40.346Z,1018.01
2018-12-13T02:42:40.327Z,1018.01
2018-12-13T02:43:40.292Z,1017.98
2018-12-13T02:44:40.263Z,1017.99
2018-12-13T02:45:40.238Z,1017.95
2018-12-13T02:46:40.209Z,1017.97
2018-12-13T02:47:40.187Z,1017.96
2018-12-13T02:48:40.156Z,1017.94
2018-12-13T02:49:40.139Z,1017.93
2018-12-13T02:50:40.102Z,1017.95
2018-12-13T02:51:40.074Z,1017.95
2018-12-13T02:52:40.056Z,1017.94
2018-12-13T02:53:40.018Z,1017.93
2018-12-13T02:54:39.991Z,1017.94
2018-12-13T02:55:39.965Z,1017.94
2018-12-13T02:56:39.944Z,1017.93
2018-12-13T02:57:39.911Z,1017.89
2018-12-13T02:58:39.882Z,1017.90
2018-12-13T02:59:39.855Z,1017.89
2018-12-13T03:00:39.832Z,1017.90
2018-12-13T03:01:39.801Z,1017.89
2018-12-13T03:02:39.776Z,1017.90
2018-12-13T03:03:39.746Z,1017.94
2018-12-13T03:04:39.723Z,1017.88
2018-12-13T03:05:39.691Z,1017.90
2018-12-13T03:06:39.663Z,1017.87
2018-12-13T03:07:39.637Z,1017.86
2018-12-13T03:08:39.610Z,1017.86
2018-12-13T03:09:39.587Z,1017.80
2018-12-13T03:10:39.555Z,1017.82
2018-12-13T03:11:39.529Z,1017.85
2018-12-13T03:12:39.504Z,1017.83
2018-12-13T03:13:39.473Z,1017.87
2018-12-13T03:14:39.449Z,1017.82
2018-12-13T03:15:39.424Z,1017.88
2018-12-13T03:16:39.398Z,1017.87
2018-12-13T03:17:39.363Z,1017.85
2018-12-13T03:18:39.338Z,1017.86
2018-12-13T03:19:39.314Z,1017.86
2018-12-13T03:20:39.282Z,1017.91
2018-12-13T03:21:39.257Z,1017.94
2018-12-13T03:22:39.232Z,1017.94
2018-12-13T03:23:39.201Z,1017.92
2018-12-13T03:24:39.173Z,1017.88
2018-12-13T03:25:39.148Z,1017.93
2018-12-13T03:26:39.120Z,1017.83
2018-12-13T03:27:39.094Z,1017.82
2018-12-13T03:28:39.062Z,1017.84
2018-12-13T03:29:39.048Z,1017.84
2018-12-13T03:30:39.019Z,1017.89
2018-12-13T03:31:38.992Z,1017.83
2018-12-13T03:32:38.986Z,1017.85
2018-12-13T03:33:38.923Z,1017.86
2018-12-13T03:34:38.898Z,1017.83
2018-12-13T03:35:38.871Z,1017.81
2018-12-13T03:36:38.853Z,1017.80
2018-12-13T03:37:38.813Z,1017.75
2018-12-13T03:38:38.789Z,1017.73
2018-12-13T03:39:38.759Z,1017.71
2018-12-13T03:40:38.734Z,1017.75
2018-12-13T03:41:38.712Z,1017.69
2018-12-13T03:42:38.680Z,1017.75
2018-12-13T03:43:38.744Z,1017.68
2018-12-13T03:44:38.630Z,1017.75
2018-12-13T03:45:38.591Z,1017.70
2018-12-13T03:46:38.570Z,1017.69
2018-12-13T03:47:38.537Z,1017.74
2018-12-13T03:48:38.509Z,1017.63
2018-12-13T03:49:38.482Z,1017.67
2018-12-13T03:50:38.459Z,1017.66
2018-12-13T03:51:38.426Z,1017.66
2018-12-13T03:52:38.399Z,1017.62
2018-12-13T03:53:38.371Z,1017.64
2018-12-13T03:54:38.353Z,1017.63
2018-12-13T03:55:38.318Z,1017.64
2018-12-13T03:56:38.290Z,1017.62
2018-12-13T03:57:38.265Z,1017.58
2018-12-13T03:58:38.233Z,1017.57
2018-12-13T03:59:38.207Z,1017.57
2018-12-13T04:00:38.180Z,1017.62
2018-12-13T04:01:38.152Z,1017.59
2018-12-13T04:02:38.126Z,1017.61
2018-12-13T04:03:38.107Z,1017.58
2018-12-13T04:04:38.068Z,1017.57
2018-12-13T04:05:38.042Z,1017.57
2018-12-13T04:06:38.011Z,1017.57
2018-12-13T04:07:37.993Z,1017.55
2018-12-13T04:08:37.978Z,1017.56
2018-12-13T04:09:37.978Z,1017.54
2018-12-13T04:10:37.899Z,1017.54
2018-12-13T04:11:37.872Z,1017.53
2018-12-13T04:12:37.845Z,1017.54
2018-12-13T04:13:37.815Z,1017.54
2018-12-13T04:14:37.789Z,1017.52
2018-12-13T04:15:37.760Z,1017.55
2018-12-13T04:16:37.742Z,1017.52
2018-12-13T04:17:37.713Z,1017.49
2018-12-13T04:18:37.677Z,1017.50
2018-12-13T04:19:37.653Z,1017.51
2018-12-13T04:20:37.624Z,1017.47
2018-12-13T04:21:37.592Z,1017.48
2018-12-13T04:22:37.571Z,1017.47
2018-12-13T04:23:37.540Z,1017.46
2018-12-13T04:24:37.508Z,1017.48
2018-12-13T04:25:37.483Z,1017.50
2018-12-13T04:26:37.452Z,1017.43
2018-12-13T04:27:37.425Z,1017.46
2018-12-13T04:28:37.403Z,1017.46
2018-12-13T04:29:37.377Z,1017.43
2018-12-13T04:30:37.340Z,1017.41
2018-12-13T04:31:37.319Z,1017.44
2018-12-13T04:32:37.296Z,1017.47
2018-12-13T04:33:37.257Z,1017.41
2018-12-13T04:34:37.229Z,1017.40
2018-12-13T04:35:37.200Z,1017.43
2018-12-13T04:36:37.174Z,1017.41
2018-12-13T04:37:37.145Z,1017.45
2018-12-13T04:38:37.117Z,1017.41
2018-12-13T04:39:37.097Z,1017.40
2018-12-13T04:40:37.063Z,1017.43
2018-12-13T04:41:37.035Z,1017.44
2018-12-13T04:42:37.013Z,1017.43
2018-12-13T04:43:36.981Z,1017.39
2018-12-13T04:44:37.890Z,1017.42
2018-12-13T04:45:36.923Z,1017.41
2018-12-13T04:46:36.904Z,1017.41
2018-12-13T04:47:36.867Z,1017.44
2018-12-13T04:48:36.839Z,1017.40
2018-12-13T04:49:36.808Z,1017.42
2018-12-13T04:50:36.781Z,1017.39
2018-12-13T04:51:36.754Z,1017.39
2018-12-13T04:52:36.730Z,1017.37
2018-12-13T04:53:36.708Z,1017.35
2018-12-13T04:54:36.669Z,1017.33
2018-12-13T04:55:36.641Z,1017.36
2018-12-13T04:56:36.615Z,1017.37
2018-12-13T04:57:36.584Z,1017.33
2018-12-13T04:58:36.557Z,1017.31
2018-12-13T04:59:36.530Z,1017.35
2018-12-13T05:00:36.502Z,1017.30
2018-12-13T05:01:36.474Z,1017.38
2018-12-13T05:02:36.447Z,1017.33
2018-12-13T05:03:36.418Z,1017.35
2018-12-13T05:04:36.393Z,1017.34
2018-12-13T05:05:36.361Z,1017.31
2018-12-13T05:06:36.334Z,1017.31
2018-12-13T05:07:41.771Z,1017.33
2018-12-13T05:08:36.285Z,1017.33
2018-12-13T05:09:36.256Z,1017.31
2018-12-13T05:10:36.322Z,1017.30
2018-12-13T05:11:36.193Z,1017.29
2018-12-13T05:12:36.182Z,1017.31
2018-12-13T05:13:36.137Z,1017.29
2018-12-13T05:14:36.108Z,1017.27
2018-12-13T05:15:36.080Z,1017.29
2018-12-13T05:16:36.054Z,1017.30
2018-12-13T05:17:36.028Z,1017.28
2018-12-13T05:18:35.998Z,1017.23
2018-12-13T05:19:35.975Z,1017.19
2018-12-13T05:20:35.943Z,1017.20
2018-12-13T05:21:35.914Z,1017.24
2018-12-13T05:22:35.883Z,1017.18
2018-12-13T05:23:35.856Z,1017.21
2018-12-13T05:24:35.828Z,1017.16
2018-12-13T05:25:35.804Z,1017.18
2018-12-13T05:26:35.772Z,1017.12
2018-12-13T05:27:35.747Z,1017.13
2018-12-13T05:28:35.719Z,1017.17
2018-12-13T05:29:35.687Z,1017.17
2018-12-13T05:30:35.662Z,1017.17
2018-12-13T05:31:35.648Z,1017.12
2018-12-13T05:32:35.604Z,1017.16
2018-12-13T05:33:35.591Z,1017.13
2018-12-13T05:34:35.549Z,1017.13
2018-12-13T05:35:35.522Z,1017.13
2018-12-13T05:36:35.496Z,1017.10
2018-12-13T05:37:35.463Z,1017.09
2018-12-13T05:38:35.489Z,1017.08
2018-12-13T05:39:35.408Z,1017.12
2018-12-13T05:40:35.380Z,1017.08
2018-12-13T05:41:35.358Z,1017.09
2018-12-13T05:42:35.325Z,1017.08
2018-12-13T05:43:35.297Z,1017.08
2018-12-13T05:44:35.272Z,1017.06
2018-12-13T05:45:35.238Z,1017.07
2018-12-13T05:46:35.224Z,1017.04
2018-12-13T05:47:35.237Z,1017.03
2018-12-13T05:48:35.157Z,1017.04
2018-12-13T05:49:35.128Z,1017.09
2018-12-13T05:50:35.098Z,1017.05
2018-12-13T05:51:35.070Z,1017.07
2018-12-13T05:52:35.058Z,1017.07
2018-12-13T05:53:35.013Z,1017.09
2018-12-13T05:54:34.985Z,1017.01
2018-12-13T05:55:34.964Z,1017.07
2018-12-13T05:56:34.931Z,1017.05
2018-12-13T05:57:34.900Z,1017.06
2018-12-13T05:58:34.872Z,1017.05
2018-12-13T05:59:34.846Z,1017.03
2018-12-13T06:00:34.815Z,1017.06
2018-12-13T06:01:34.796Z,1017.09
2018-12-13T06:02:34.758Z,1017.10
2018-12-13T06:03:34.734Z,1017.10
2018-12-13T06:04:34.704Z,1017.12
2018-12-13T06:05:34.676Z,1017.11
2018-12-13T06:06:34.645Z,1017.13
2018-12-13T06:07:34.623Z,1017.12
2018-12-13T06:08:34.591Z,1017.16
2018-12-13T06:09:34.562Z,1017.15
2018-12-13T06:10:34.536Z,1017.14
2018-12-13T06:11:34.519Z,1017.16
2018-12-13T06:12:34.479Z,1017.15
2018-12-13T06:13:34.453Z,1017.14
2018-12-13T06:14:34.424Z,1017.17
2018-12-13T06:15:34.392Z,1017.18
2018-12-13T06:16:34.374Z,1017.16
2018-12-13T06:17:34.349Z,1017.17
2018-12-13T06:18:34.308Z,1017.17
2018-12-13T06:19:34.283Z,1017.13
2018-12-13T06:20:34.255Z,1017.18
2018-12-13T06:21:37.056Z,1017.17
2018-12-13T06:22:34.195Z,1017.20
2018-12-13T06:23:34.165Z,1017.19
2018-12-13T06:24:34.143Z,1017.21
2018-12-13T06:25:34.118Z,1017.25
2018-12-13T06:26:34.082Z,1017.19
2018-12-13T06:27:34.055Z,1017.19
2018-12-13T06:28:34.034Z,1017.20
2018-12-13T06:29:33.998Z,1017.25
2018-12-13T06:30:33.968Z,1017.22
2018-12-13T06:31:33.943Z,1017.23
2018-12-13T06:32:33.915Z,1017.29
2018-12-13T06:33:33.884Z,1017.29
2018-12-13T06:34:33.855Z,1017.24
2018-12-13T06:35:33.836Z,1017.28
2018-12-13T06:36:33.799Z,1017.29
2018-12-13T06:37:33.821Z,1017.28
2018-12-13T06:38:33.742Z,1017.38
2018-12-13T06:39:33.713Z,1017.34
2018-12-13T06:40:33.693Z,1017.39
2018-12-13T06:41:33.663Z,1017.36
2018-12-13T06:42:33.629Z,1017.39
2018-12-13T06:43:33.600Z,1017.38
2018-12-13T06:44:33.573Z,1017.40
2018-12-13T06:45:33.544Z,1017.41
2018-12-13T06:46:33.527Z,1017.45
2018-12-13T06:47:33.491Z,1017.46
2018-12-13T06:48:33.473Z,1017.43
2018-12-13T06:49:33.429Z,1017.45
2018-12-13T06:50:33.407Z,1017.41
2018-12-13T06:51:33.418Z,1017.40
2018-12-13T06:52:33.356Z,1017.40
2018-12-13T06:53:33.328Z,1017.41
2018-12-13T06:54:33.289Z,1017.38
2018-12-13T06:55:33.274Z,1017.37
2018-12-13T06:56:33.245Z,1017.37
2018-12-13T06:57:33.203Z,1017.38
2018-12-13T06:58:33.182Z,1017.34
2018-12-13T06:59:33.150Z,1017.34
2018-12-13T07:00:33.121Z,1017.35
2018-12-13T07:01:33.100Z,1017.35
2018-12-13T07:02:33.069Z,1017.34
2018-12-13T07:03:33.039Z,1017.34
2018-12-13T07:04:33.015Z,1017.34
2018-12-13T07:05:32.976Z,1017.41
2018-12-13T07:06:32.947Z,1017.43
2018-12-13T07:07:32.917Z,1017.38
2018-12-13T07:08:32.890Z,1017.43
2018-12-13T07:09:32.869Z,1017.38
2018-12-13T07:10:32.848Z,1017.43
2018-12-13T07:11:32.804Z,1017.42
2018-12-13T07:12:32.777Z,1017.41
2018-12-13T07:13:32.748Z,1017.42
2018-12-13T07:14:32.719Z,1017.43
2018-12-13T07:15:32.691Z,1017.39
2018-12-13T07:16:32.670Z,1017.43
2018-12-13T07:17:32.633Z,1017.40
2018-12-13T07:18:32.604Z,1017.41
2018-12-13T07:19:32.576Z,1017.44
2018-12-13T07:20:32.552Z,1017.44
2018-12-13T07:21:32.520Z,1017.46
2018-12-13T07:22:32.491Z,1017.45
2018-12-13T07:23:32.470Z,1017.45
2018-12-13T07:24:32.438Z,1017.49
2018-12-13T07:25:32.408Z,1017.47
2018-12-13T07:26:32.377Z,1017.52
2018-12-13T07:27:32.358Z,1017.51
2018-12-13T07:28:32.329Z,1017.56
2018-12-13T07:29:32.299Z,1017.55
2018-12-13T07:30:32.266Z,1017.57
2018-12-13T07:31:32.241Z,1017.55
2018-12-13T07:32:32.213Z,1017.53
2018-12-13T07:33:32.199Z,1017.54
2018-12-13T07:34:32.154Z,1017.55
2018-12-13T07:35:32.123Z,1017.52
2018-12-13T07:36:32.095Z,1017.49
2018-12-13T07:37:32.067Z,1017.50
2018-12-13T07:38:32.038Z,1017.51
2018-12-13T07:39:32.019Z,1017.52
2018-12-13T07:40:31.992Z,1017.55
2018-12-13T07:41:31.959Z,1017.55
2018-12-13T07:42:31.926Z,1017.56
2018-12-13T07:43:31.898Z,1017.48
2018-12-13T07:44:31.920Z,1017.49
2018-12-13T07:45:31.841Z,1017.49
2018-12-13T07:46:31.810Z,1017.49
2018-12-13T07:47:31.831Z,1017.53
2018-12-13T07:48:31.756Z,1017.50
2018-12-13T07:49:31.740Z,1017.53
2018-12-13T07:50:31.699Z,1017.51
2018-12-13T07:51:31.675Z,1017.54
2018-12-13T07:52:31.653Z,1017.55
2018-12-13T07:53:31.619Z,1017.54
2018-12-13T07:54:31.596Z,1017.55
2018-12-13T07:55:31.563Z,1017.49
2018-12-13T07:56:31.534Z,1017.54
2018-12-13T07:57:31.503Z,1017.54
2018-12-13T07:58:31.474Z,1017.58
2018-12-13T07:59:31.458Z,1017.56
2018-12-13T08:00:31.420Z,1017.54
2018-12-13T08:01:32.574Z,1017.50
2018-12-13T08:02:31.362Z,1017.51
2018-12-13T08:03:31.335Z,1017.55
2018-12-13T08:04:31.315Z,1017.50
2018-12-13T08:05:31.338Z,1017.54
2018-12-13T08:06:31.250Z,1017.54
2018-12-13T08:07:31.223Z,1017.54
2018-12-13T08:08:31.200Z,1017.53
2018-12-13T08:09:31.167Z,1017.50
2018-12-13T08:10:31.142Z,1017.50
2018-12-13T08:11:31.112Z,1017.52
2018-12-13T08:12:31.086Z,1017.53
2018-12-13T08:13:31.061Z,1017.54
2018-12-13T08:14:31.029Z,1017.54
2018-12-13T08:15:31.001Z,1017.56
2018-12-13T08:16:30.974Z,1017.46
2018-12-13T08:17:30.951Z,1017.43
2018-12-13T08:18:30.921Z,1017.50
2018-12-13T08:19:30.901Z,1017.50
2018-12-13T08:20:30.872Z,1017.49
2018-12-13T08:21:30.836Z,1017.46
2018-12-13T08:22:30.809Z,1017.45
2018-12-13T08:23:30.931Z,1017.46
2018-12-13T08:24:30.754Z,1017.45
2018-12-13T08:25:30.726Z,1017.48
2018-12-13T08:26:30.700Z,1017.44
2018-12-13T08:27:30.676Z,1017.47
2018-12-13T08:28:30.657Z,1017.48
2018-12-13T08:29:30.619Z,1017.43
2018-12-13T08:30:30.588Z,1017.44
2018-12-13T08:31:30.561Z,1017.43
2018-12-13T08:32:30.542Z,1017.43
2018-12-13T08:33:30.519Z,1017.44
2018-12-13T08:34:30.480Z,1017.46
2018-12-13T08:35:30.452Z,1017.41
2018-12-13T08:36:30.424Z,1017.44
2018-12-13T08:37:30.399Z,1017.45
2018-12-13T08:38:30.376Z,1017.47
2018-12-13T08:39:30.347Z,1017.47
2018-12-13T08:40:30.323Z,1017.50
2018-12-13T08:41:30.286Z,1017.48
2018-12-13T08:42:30.278Z,1017.48
2018-12-13T08:43:30.240Z,1017.50
2018-12-13T08:44:30.212Z,1017.51
2018-12-13T08:45:30.181Z,1017.52
2018-12-13T08:46:36.367Z,1017.50
2018-12-13T08:47:30.126Z,1017.52
2018-12-13T08:48:30.148Z,1017.56
2018-12-13T08:49:30.091Z,1017.50
2018-12-13T08:50:30.044Z,1017.48
2018-12-13T08:51:30.017Z,1017.49
2018-12-13T08:52:29.997Z,1017.48
2018-12-13T08:53:29.967Z,1017.45
2018-12-13T08:54:30.087Z,1017.46
2018-12-13T08:55:29.918Z,1017.44
2018-12-13T08:56:29.935Z,1017.43
2018-12-13T08:57:29.859Z,1017.47
2018-12-13T08:58:29.830Z,1017.48
2018-12-13T08:59:29.803Z,1017.47
2018-12-13T09:00:29.777Z,1017.47
2018-12-13T09:01:29.751Z,1017.47
2018-12-13T09:02:29.723Z,1017.49
2018-12-13T09:03:29.699Z,1017.51
2018-12-13T09:04:29.679Z,1017.50
2018-12-13T09:05:29.641Z,1017.52
2018-12-13T09:06:29.623Z,1017.53
2018-12-13T09:07:29.589Z,1017.56
2018-12-13T09:08:33.671Z,1017.55
2018-12-13T09:09:29.536Z,1017.53
2018-12-13T09:10:29.524Z,1017.58
2018-12-13T09:11:29.482Z,1017.58
2018-12-13T09:12:29.455Z,1017.55
2018-12-13T09:13:29.427Z,1017.56
2018-12-13T09:14:29.408Z,1017.57
2018-12-13T09:15:29.383Z,1017.58
2018-12-13T09:16:31.662Z,1017.60
2018-12-13T09:17:29.324Z,1017.55
2018-12-13T09:18:29.294Z,1017.60
2018-12-13T09:19:29.270Z,1017.59
2018-12-13T09:20:29.244Z,1017.60
2018-12-13T09:21:29.215Z,1017.58
2018-12-13T09:22:29.205Z,1017.61
2018-12-13T09:23:29.162Z,1017.59
2018-12-13T09:24:29.138Z,1017.61
2018-12-13T09:25:29.110Z,1017.58
2018-12-13T09:26:29.087Z,1017.63
2018-12-13T09:27:29.063Z,1017.58
2018-12-13T09:28:29.034Z,1017.63
2018-12-13T09:29:29.012Z,1017.66
2018-12-13T09:30:29.131Z,1017.62
2018-12-13T09:31:28.951Z,1017.65
2018-12-13T09:32:28.928Z,1017.65
2018-12-13T09:33:28.899Z,1017.66
2018-12-13T09:34:28.878Z,1017.68
2018-12-13T09:35:28.849Z,1017.66
2018-12-13T09:36:28.833Z,1017.65
2018-12-13T09:37:28.795Z,1017.64
2018-12-13T09:38:28.770Z,1017.60
2018-12-13T09:39:28.743Z,1017.59
2018-12-13T09:40:28.717Z,1017.58
2018-12-13T09:41:28.699Z,1017.58
2018-12-13T09:42:28.669Z,1017.63
2018-12-13T09:43:28.645Z,1017.61
2018-12-13T09:44:28.617Z,1017.64
2018-12-13T09:45:28.592Z,1017.62
2018-12-13T09:46:28.564Z,1017.63
2018-12-13T09:47:28.535Z,1017.62
2018-12-13T09:48:28.513Z,1017.62
2018-12-13T09:49:28.496Z,1017.71
2018-12-13T09:50:28.460Z,1017.67
2018-12-13T09:51:28.435Z,1017.71
2018-12-13T09:52:28.407Z,1017.72
2018-12-13T09:53:28.386Z,1017.68
2018-12-13T09:54:28.358Z,1017.67
2018-12-13T09:55:28.330Z,1017.66
2018-12-13T09:56:28.306Z,1017.69
2018-12-13T09:57:28.277Z,1017.66
2018-12-13T09:58:28.258Z,1017.67
2018-12-13T09:59:28.227Z,1017.63
2018-12-13T10:00:28.201Z,1017.65
2018-12-13T10:01:28.185Z,1017.65
2018-12-13T10:02:28.160Z,1017.64
2018-12-13T10:03:28.124Z,1017.65
2018-12-13T10:04:28.097Z,1017.63
2018-12-13T10:05:28.082Z,1017.61
2018-12-13T10:06:28.050Z,1017.57
2018-12-13T10:07:28.028Z,1017.60
2018-12-13T10:08:28.016Z,1017.61
2018-12-13T10:09:27.970Z,1017.55
2018-12-13T10:10:27.957Z,1017.54
2018-12-13T10:11:27.922Z,1017.50
2018-12-13T10:12:27.910Z,1017.49
2018-12-13T10:13:27.875Z,1017.49
2018-12-13T10:14:27.843Z,1017.56
2018-12-13T10:15:31.965Z,1017.54
2018-12-13T10:16:27.806Z,1017.51
2018-12-13T10:17:27.829Z,1017.56
2018-12-13T10:18:27.749Z,1017.50
2018-12-13T10:19:27.716Z,1017.49
2018-12-13T10:20:27.692Z,1017.53
2018-12-13T10:21:27.668Z,1017.52
2018-12-13T10:22:28.700Z,1017.53
2018-12-13T10:23:27.624Z,1017.55
2018-12-13T10:24:27.602Z,1017.61
2018-12-13T10:25:27.587Z,1017.57
2018-12-13T10:26:27.541Z,1017.56
2018-12-13T10:27:27.544Z,1017.57
2018-12-13T10:28:27.491Z,1017.63
2018-12-13T10:29:27.476Z,1017.63
2018-12-13T10:30:27.456Z,1017.65
2018-12-13T10:31:27.416Z,1017.62
2018-12-13T10:32:27.395Z,1017.61
2018-12-13T10:33:27.364Z,1017.60
2018-12-13T10:34:27.341Z,1017.56
2018-12-13T10:35:27.324Z,1017.55
2018-12-13T10:36:27.297Z,1017.51
2018-12-13T10:37:27.275Z,1017.50
2018-12-13T10:38:27.244Z,1017.51
2018-12-13T10:39:27.262Z,1017.44
2018-12-13T10:40:27.191Z,1017.48
2018-12-13T10:41:27.655Z,1017.48
2018-12-13T10:42:27.140Z,1017.47
2018-12-13T10:43:27.115Z,1017.44
2018-12-13T10:44:27.094Z,1017.48
2018-12-13T10:45:27.069Z,1017.46
2018-12-13T10:46:27.050Z,1017.44
2018-12-13T10:47:27.015Z,1017.42
2018-12-13T10:48:26.991Z,1017.39
2018-12-13T10:49:26.968Z,1017.44
2018-12-13T10:50:26.943Z,1017.45
2018-12-13T10:51:26.917Z,1017.43
2018-12-13T10:52:26.909Z,1017.45
2018-12-13T10:53:26.877Z,1017.44
2018-12-13T10:54:26.851Z,1017.36
2018-12-13T10:55:26.826Z,1017.34
2018-12-13T10:56:26.793Z,1017.35
2018-12-13T10:57:26.767Z,1017.34
2018-12-13T10:58:26.744Z,1017.31
2018-12-13T10:59:26.721Z,1017.28
2018-12-13T11:00:26.702Z,1017.28
2018-12-13T11:01:26.677Z,1017.26
2018-12-13T11:02:26.655Z,1017.29
2018-12-13T11:03:26.628Z,1017.26
2018-12-13T11:04:26.606Z,1017.21
2018-12-13T11:05:26.579Z,1017.21
2018-12-13T11:06:26.559Z,1017.22
2018-12-13T11:07:26.679Z,1017.24
2018-12-13T11:08:26.504Z,1017.24
2018-12-13T11:09:26.477Z,1017.22
2018-12-13T11:10:26.457Z,1017.26
2018-12-13T11:11:26.423Z,1017.20
2018-12-13T11:12:26.408Z,1017.18
2018-12-13T11:13:26.372Z,1017.11
2018-12-13T11:14:26.349Z,1017.12
2018-12-13T11:15:26.324Z,1017.11
2018-12-13T11:16:26.300Z,1017.10
2018-12-13T11:17:26.276Z,1017.02
2018-12-13T11:18:26.249Z,1017.05
2018-12-13T11:19:26.228Z,1017.00
2018-12-13T11:20:26.216Z,1017.04
2018-12-13T11:21:26.176Z,1017.03
2018-12-13T11:22:26.163Z,1017.03
2018-12-13T11:23:26.126Z,1017.03
2018-12-13T11:24:26.103Z,1017.05
2018-12-13T11:25:26.079Z,1016.98
2018-12-13T11:26:26.052Z,1017.03
2018-12-13T11:27:26.035Z,1017.02
2018-12-13T11:28:26.003Z,1017.00
2018-12-13T11:29:25.975Z,1016.98
2018-12-13T11:30:25.951Z,1017.02
2018-12-13T11:31:25.933Z,1017.06
2018-12-13T11:32:25.906Z,1017.00
2018-12-13T11:33:25.883Z,1017.00
2018-12-13T11:34:25.855Z,1016.94
2018-12-13T11:35:25.826Z,1016.96
2018-12-13T11:36:25.800Z,1016.94
2018-12-13T11:37:25.774Z,1016.91
2018-12-13T11:38:25.756Z,1016.89
2018-12-13T11:39:25.724Z,1016.90
2018-12-13T11:40:25.808Z,1016.92
2018-12-13T11:41:25.679Z,1016.92
2018-12-13T11:42:25.668Z,1016.88
2018-12-13T11:43:25.676Z,1016.83
2018-12-13T11:44:25.608Z,1016.85
2018-12-13T11:45:25.575Z,1016.86
2018-12-13T11:46:25.549Z,1016.81
2018-12-13T11:47:25.526Z,1016.84
2018-12-13T11:48:25.504Z,1016.79
2018-12-13T11:49:25.471Z,1016.79
2018-12-13T11:50:25.444Z,1016.83
2018-12-13T11:51:25.420Z,1016.79
2018-12-13T11:52:25.402Z,1016.82
2018-12-13T11:53:25.367Z,1016.75
2018-12-13T11:54:25.360Z,1016.76
2018-12-13T11:55:25.326Z,1016.72
2018-12-13T11:56:25.295Z,1016.71
2018-12-13T11:57:25.274Z,1016.67
2018-12-13T11:58:25.254Z,1016.69
2018-12-13T11:59:25.219Z,1016.64
2018-12-13T12:00:25.196Z,1016.64
2018-12-13T12:01:25.170Z,1016.60
2018-12-13T12:02:25.144Z,1016.58
2018-12-13T12:03:25.126Z,1016.57
2018-12-13T12:04:25.102Z,1016.54
2018-12-13T12:05:25.070Z,1016.53